createdAt,value
2018-04-23T00:00:31.163Z,84.22
2018-04-23T00:01:10.191Z,84.46
2018-04-23T00:02:10.223Z,84.84
2018-04-23T00:03:10.155Z,84.94
2018-04-23T00:04:10.180Z,85.41
2018-04-23T00:05:10.177Z,85.80
2018-04-23T00:06:31.329Z,85.80
2018-04-23T00:07:10.205Z,85.89
2018-04-23T00:08:10.147Z,85.89
2018-04-23T00:09:10.203Z,86.66
2018-04-23T00:10:10.126Z,87.14
2018-04-23T00:11:10.290Z,87.62
2018-04-23T00:12:31.134Z,87.71
2018-04-23T00:13:10.116Z,87.43
2018-04-23T00:14:10.335Z,87.71
2018-04-23T00:15:10.150Z,88.09
2018-04-23T00:16:10.417Z,88.29
2018-04-23T00:17:10.230Z,88.62
2018-04-23T00:18:31.117Z,89.34
2018-04-23T00:19:10.117Z,89.15
2018-04-23T00:20:10.099Z,89.43
2018-04-23T00:21:10.108Z,89.72
2018-04-23T00:22:10.228Z,89.48
2018-04-23T00:23:10.241Z,90.39
2018-04-23T00:24:31.196Z,90.30
2018-04-23T00:25:10.231Z,90.16
2018-04-23T00:26:10.252Z,90.77
2018-04-23T00:27:10.183Z,90.73
2018-04-23T00:28:10.174Z,91.02
2018-04-23T00:29:10.107Z,91.49
2018-04-23T00:30:31.088Z,92.25
2018-04-23T00:31:10.075Z,91.88
2018-04-23T00:32:10.223Z,91.68
2018-04-23T00:33:10.049Z,91.97
2018-04-23T00:34:10.101Z,92.25
2018-04-23T00:35:10.063Z,92.93
2018-04-23T00:36:31.102Z,92.93
2018-04-23T00:37:10.050Z,93.21
2018-04-23T00:38:10.238Z,93.31
2018-04-23T00:39:10.285Z,93.88
2018-04-23T00:40:10.246Z,93.50
2018-04-23T00:41:10.058Z,93.50
2018-04-23T00:42:31.040Z,93.65
2018-04-23T00:43:10.037Z,93.69
2018-04-23T00:44:10.041Z,93.50
2018-04-23T00:45:10.038Z,93.98
2018-04-23T00:46:10.062Z,94.26
2018-04-23T00:47:10.924Z,94.46
2018-04-23T00:48:31.020Z,94.17
2018-04-23T00:49:10.130Z,94.55
2018-04-23T00:50:10.038Z,94.46
2018-04-23T00:51:09.991Z,94.26
2018-04-23T00:52:10.248Z,94.17
2018-04-23T00:53:10.032Z,94.26
2018-04-23T00:54:30.996Z,94.26
2018-04-23T00:55:09.994Z,94.65
2018-04-23T00:56:10.114Z,94.79
2018-04-23T00:57:10.086Z,95.07
2018-04-23T00:58:10.187Z,95.07
2018-04-23T00:59:10.206Z,95.36
2018-04-23T01:00:31.112Z,95.27
2018-04-23T01:01:10.189Z,95.61
2018-04-23T01:02:10.196Z,95.27
2018-04-23T01:03:09.980Z,95.12
2018-04-23T01:04:10.027Z,95.36
2018-04-23T01:05:09.974Z,95.41
2018-04-23T01:06:31.003Z,95.36
2018-04-23T01:07:09.986Z,96.13
2018-04-23T01:08:09.990Z,95.84
2018-04-23T01:09:10.062Z,96.22
2018-04-23T01:10:09.944Z,96.42
2018-04-23T01:11:09.953Z,97.08
2018-04-23T01:12:30.957Z,97.18
2018-04-23T01:13:09.989Z,97.37
2018-04-23T01:14:10.059Z,97.08
2018-04-23T01:15:09.953Z,97.94
2018-04-23T01:16:10.106Z,97.99
2018-04-23T01:17:10.091Z,98.08
2018-04-23T01:18:30.975Z,98.57
2018-04-23T01:19:10.119Z,98.99
2018-04-23T01:20:09.931Z,98.80
2018-04-23T01:21:09.905Z,98.42
2018-04-23T01:22:09.936Z,98.13
2018-04-23T01:23:09.937Z,97.94
2018-04-23T01:24:30.927Z,98.33
2018-04-23T01:25:09.924Z,98.42
2018-04-23T01:26:09.932Z,98.42
2018-04-23T01:27:09.905Z,98.80
2018-04-23T01:28:09.883Z,98.52
2018-04-23T01:29:10.064Z,98.80
2018-04-23T02:02:07.853Z,99.99
2018-04-23T02:03:07.828Z,99.99
2018-04-23T02:05:00.855Z,99.99
2018-04-23T02:06:00.776Z,99.99
2018-04-23T02:07:53.751Z,99.99
2018-04-23T02:08:53.728Z,99.99
2018-04-23T02:10:46.707Z,99.99
2018-04-23T02:11:46.674Z,99.99
2018-04-23T02:13:39.627Z,99.99
2018-04-23T02:14:39.604Z,99.99
2018-04-23T02:16:32.623Z,99.99
2018-04-23T02:17:32.578Z,99.99
2018-04-23T02:19:26.500Z,99.99
2018-04-23T02:20:26.482Z,99.99
2018-04-23T02:22:19.428Z,99.99
2018-04-23T02:23:19.398Z,99.80
2018-04-23T02:25:12.414Z,99.85
2018-04-23T02:26:12.390Z,99.48
2018-04-23T02:28:05.328Z,99.48
2018-04-23T02:29:05.313Z,99.48
2018-04-23T02:30:58.330Z,99.85
2018-04-23T02:31:58.312Z,99.66
2018-04-23T02:33:51.253Z,99.48
2018-04-23T02:34:51.241Z,99.38
2018-04-23T02:36:44.228Z,98.33
2018-04-23T02:37:44.205Z,98.90
2018-04-23T02:39:37.264Z,98.71
2018-04-23T02:40:37.247Z,98.90
2018-04-23T02:42:30.133Z,98.04
2018-04-23T02:43:30.117Z,97.18
2018-04-23T02:45:23.070Z,98.04
2018-04-23T02:46:23.042Z,98.28
2018-04-23T02:48:16.064Z,98.04
2018-04-23T02:49:16.041Z,98.23
2018-04-23T02:52:00.093Z,98.13
2018-04-23T02:53:00.079Z,98.61
2018-04-23T02:54:53.018Z,98.23
2018-04-23T02:55:53.015Z,97.85
2018-04-23T02:57:45.998Z,96.89
2018-04-23T02:58:45.978Z,97.18
2018-04-23T03:00:38.961Z,96.80
2018-04-23T03:01:38.905Z,97.47
2018-04-23T03:03:31.948Z,98.23
2018-04-23T03:04:31.920Z,97.75
2018-04-23T03:07:15.919Z,97.75
2018-04-23T03:08:15.893Z,97.85
2018-04-23T03:10:08.913Z,98.13
2018-04-23T03:11:08.797Z,98.23
2018-04-23T03:13:01.882Z,97.56
2018-04-23T03:14:01.824Z,98.04
2018-04-23T03:15:54.718Z,98.13
2018-04-23T03:16:54.693Z,97.75
2018-04-23T03:18:47.642Z,97.56
2018-04-23T03:19:47.631Z,98.13
2018-04-23T03:21:40.550Z,97.85
2018-04-23T03:22:40.516Z,98.33
2018-04-23T03:24:33.553Z,97.94
2018-04-23T03:25:33.537Z,98.13
2018-04-23T03:28:17.589Z,97.28
2018-04-23T03:29:17.558Z,96.84
2018-04-23T03:31:10.502Z,96.61
2018-04-23T03:32:10.475Z,96.99
2018-04-23T03:34:03.461Z,97.13
2018-04-23T03:35:03.440Z,97.71
2018-04-23T03:36:56.384Z,96.94
2018-04-23T03:37:56.350Z,96.94
2018-04-23T03:39:49.347Z,96.94
2018-04-23T03:40:49.324Z,96.84
2018-04-23T03:42:42.229Z,96.94
2018-04-23T03:43:42.210Z,96.75
2018-04-23T03:45:35.130Z,96.27
2018-04-23T03:46:35.131Z,95.89
2018-04-23T03:48:28.105Z,95.22
2018-04-23T03:49:28.076Z,95.22
2018-04-23T03:51:21.052Z,95.22
2018-04-23T03:52:21.015Z,95.32
2018-04-23T03:55:05.007Z,95.51
2018-04-23T03:56:04.978Z,95.12
2018-04-23T03:57:57.949Z,95.70
2018-04-23T03:58:57.920Z,95.61
2018-04-23T04:00:50.933Z,95.32
2018-04-23T04:01:50.902Z,95.61
2018-04-23T04:03:43.821Z,95.41
2018-04-23T04:04:43.810Z,95.41
2018-04-23T04:06:36.722Z,95.41
2018-04-23T04:07:36.686Z,95.41
2018-04-23T04:09:29.669Z,95.70
2018-04-23T04:10:29.657Z,95.41
2018-04-23T04:12:22.605Z,95.89
2018-04-23T04:13:22.572Z,96.08
2018-04-23T04:16:06.604Z,95.12
2018-04-23T04:17:06.563Z,95.61
2018-04-23T04:18:06.550Z,95.12
2018-04-23T04:19:06.552Z,95.98
2018-04-23T04:20:06.551Z,95.12
2018-04-23T04:21:06.547Z,95.03
2018-04-23T04:22:06.537Z,94.84
2018-04-23T04:23:06.533Z,94.65
2018-04-23T04:24:06.531Z,95.32
2018-04-23T04:25:06.528Z,95.41
2018-04-23T04:26:06.523Z,95.32
2018-04-23T04:27:06.521Z,95.32
2018-04-23T04:28:06.520Z,94.65
2018-04-23T04:29:06.509Z,94.46
2018-04-23T04:30:06.522Z,94.36
2018-04-23T04:31:06.507Z,94.02
2018-04-23T04:32:06.502Z,92.79
2018-04-23T04:33:06.497Z,92.11
2018-04-23T04:34:06.497Z,91.74
2018-04-23T04:35:06.495Z,91.83
2018-04-23T04:36:06.485Z,91.54
2018-04-23T04:37:06.482Z,90.63
2018-04-23T04:38:06.484Z,90.16
2018-04-23T04:39:06.495Z,89.77
2018-04-23T04:40:06.484Z,89.58
2018-04-23T04:41:06.473Z,89.58
2018-04-23T04:42:06.473Z,89.01
2018-04-23T04:43:06.467Z,89.58
2018-04-23T04:44:06.471Z,89.58
2018-04-23T04:45:06.468Z,88.24
2018-04-23T04:46:06.459Z,89.29
2018-04-23T04:47:06.460Z,89.96
2018-04-23T04:48:06.450Z,90.92
2018-04-23T04:49:06.447Z,91.20
2018-04-23T04:50:06.447Z,91.88
2018-04-23T04:51:06.489Z,92.45
2018-04-23T04:52:06.488Z,92.35
2018-04-23T04:53:06.508Z,92.16
2018-04-23T04:54:06.436Z,93.12
2018-04-23T04:55:06.435Z,92.83
2018-04-23T04:56:06.426Z,93.12
2018-04-23T04:57:06.423Z,92.74
2018-04-23T04:58:06.419Z,91.78
2018-04-23T04:59:06.473Z,90.44
2018-04-23T05:00:06.481Z,88.34
2018-04-23T05:01:06.419Z,88.09
2018-04-23T05:02:06.410Z,88.91
2018-04-23T05:03:06.417Z,88.57
2018-04-23T05:04:06.407Z,89.15
2018-04-23T05:05:06.414Z,89.62
2018-04-23T05:06:06.405Z,89.91
2018-04-23T05:07:06.426Z,90.87
2018-04-23T05:08:06.396Z,91.35
2018-04-23T05:09:06.395Z,91.44
2018-04-23T05:10:06.400Z,91.25
2018-04-23T05:11:06.391Z,91.16
2018-04-23T05:12:06.396Z,91.53
2018-04-23T05:13:06.386Z,90.48
2018-04-23T05:14:06.382Z,89.29
2018-04-23T05:15:06.383Z,89.38
2018-04-23T05:16:06.378Z,89.48
2018-04-23T05:17:06.372Z,89.58
2018-04-23T05:18:06.376Z,89.67
2018-04-23T05:19:06.378Z,88.62
2018-04-23T05:20:06.364Z,88.85
2018-04-23T05:21:06.371Z,88.47
2018-04-23T05:22:06.372Z,87.80
2018-04-23T05:23:06.367Z,87.61
2018-04-23T05:24:06.358Z,85.79
2018-04-23T05:25:06.360Z,85.88
2018-04-23T05:26:06.358Z,86.02
2018-04-23T05:27:06.351Z,85.35
2018-04-23T05:28:06.346Z,84.88
2018-04-23T05:29:06.353Z,84.78
2018-04-23T05:30:06.354Z,85.45
2018-04-23T05:31:06.349Z,84.78
2018-04-23T05:32:06.351Z,84.68
2018-04-23T05:33:06.347Z,84.53
2018-04-23T05:34:06.342Z,84.15
2018-04-23T05:35:06.390Z,85.01
2018-04-23T05:36:06.347Z,83.95
2018-04-23T05:37:06.344Z,81.95
2018-04-23T05:38:06.344Z,80.12
2018-04-23T05:39:06.338Z,79.55
2018-04-23T05:40:06.331Z,79.64
2018-04-23T05:41:06.392Z,77.34
2018-04-23T05:42:06.401Z,77.06
2018-04-23T05:43:06.431Z,77.15
2018-04-23T05:44:06.428Z,77.44
2018-04-23T05:45:06.368Z,77.82
2018-04-23T05:46:06.360Z,77.73
2018-04-23T05:47:06.365Z,77.73
2018-04-23T05:48:06.370Z,78.20
2018-04-23T05:49:06.375Z,78.30
2018-04-23T05:50:06.391Z,78.72
2018-04-23T05:51:06.391Z,78.15
2018-04-23T05:52:06.374Z,77.58
2018-04-23T05:53:06.375Z,77.71
2018-04-23T05:54:06.363Z,77.04
2018-04-23T05:55:06.376Z,76.52
2018-04-23T05:56:06.376Z,75.31
2018-04-23T05:57:06.376Z,75.56
2018-04-23T05:58:06.373Z,75.75
2018-04-23T05:59:06.380Z,75.85
2018-04-23T06:00:06.384Z,75.89
2018-04-23T06:01:06.371Z,75.75
2018-04-23T06:02:06.394Z,75.31
2018-04-23T06:03:06.456Z,75.02
2018-04-23T06:04:06.395Z,74.73
2018-04-23T06:05:06.384Z,73.77
2018-04-23T06:06:06.346Z,73.91
2018-04-23T06:07:06.410Z,73.81
2018-04-23T06:08:06.386Z,72.99
2018-04-23T06:09:06.382Z,72.50
2018-04-23T06:10:06.387Z,71.35
2018-04-23T06:11:06.387Z,72.22
2018-04-23T06:12:06.390Z,72.99
2018-04-23T06:13:06.332Z,71.55
2018-04-23T06:14:06.388Z,71.55
2018-04-23T06:15:06.370Z,70.87
2018-04-23T06:16:06.398Z,71.19
2018-04-23T06:17:06.357Z,71.77
2018-04-23T06:18:06.361Z,70.33
2018-04-23T06:19:06.366Z,71.39
2018-04-23T06:20:06.376Z,70.90
2018-04-23T06:21:06.385Z,70.14
2018-04-23T06:22:06.389Z,71.04
2018-04-23T06:23:06.366Z,70.94
2018-04-23T06:24:06.370Z,71.42
2018-04-23T06:25:06.329Z,70.17
2018-04-23T06:26:06.341Z,71.14
2018-04-23T06:27:06.327Z,71.61
2018-04-23T06:28:06.339Z,71.61
2018-04-23T06:29:06.336Z,71.65
2018-04-23T06:30:06.342Z,71.65
2018-04-23T06:31:06.346Z,71.81
2018-04-23T06:32:06.358Z,72.67
2018-04-23T06:33:06.344Z,73.09
2018-04-23T06:34:06.378Z,72.96
2018-04-23T06:35:06.387Z,73.47
2018-04-23T06:36:06.354Z,72.86
2018-04-23T06:37:06.346Z,73.54
2018-04-23T06:38:06.410Z,72.86
2018-04-23T06:39:06.350Z,72.67
2018-04-23T06:40:06.357Z,73.63
2018-04-23T06:41:06.359Z,73.63
2018-04-23T06:42:06.377Z,73.44
2018-04-23T06:43:06.357Z,73.44
2018-04-23T06:44:06.356Z,73.21
2018-04-23T06:45:06.364Z,73.98
2018-04-23T06:46:06.367Z,74.88
2018-04-23T06:47:06.414Z,74.98
2018-04-23T06:48:06.362Z,74.17
2018-04-23T06:49:06.363Z,73.63
2018-04-23T06:50:06.369Z,74.30
2018-04-23T06:51:06.366Z,75.17
2018-04-23T06:52:06.382Z,73.69
2018-04-23T06:53:06.366Z,73.98
2018-04-23T06:54:06.364Z,74.17
2018-04-23T06:55:06.369Z,74.65
2018-04-23T06:56:06.369Z,75.04
2018-04-23T06:57:06.370Z,74.17
2018-04-23T06:58:06.448Z,73.31
2018-04-23T06:59:06.449Z,72.64
2018-04-23T07:00:06.439Z,72.83
2018-04-23T07:01:06.418Z,71.77
2018-04-23T07:02:06.412Z,72.29
2018-04-23T07:03:06.421Z,72.80
2018-04-23T07:04:06.425Z,70.40
2018-04-23T07:05:06.460Z,69.57
2018-04-23T07:06:06.413Z,69.31
2018-04-23T07:07:06.424Z,66.97
2018-04-23T07:08:06.386Z,67.77
2018-04-23T07:09:06.391Z,66.52
2018-04-23T07:10:06.396Z,65.88
2018-04-23T07:11:06.389Z,64.12
2018-04-23T07:12:06.389Z,63.57
2018-04-23T07:13:06.399Z,64.34
2018-04-23T07:14:06.407Z,64.66
2018-04-23T07:15:06.408Z,64.47
2018-04-23T07:16:06.402Z,61.38
2018-04-23T07:17:06.412Z,61.13
2018-04-23T07:18:06.405Z,61.71
2018-04-23T07:19:06.414Z,60.13
2018-04-23T07:20:06.413Z,59.48
2018-04-23T07:21:06.416Z,57.82
2018-04-23T07:22:06.421Z,58.59
2018-04-23T07:23:06.431Z,60.52
2018-04-23T07:24:06.440Z,61.00
2018-04-23T07:25:06.448Z,61.00
2018-04-23T07:26:06.439Z,59.80
2018-04-23T07:27:06.458Z,58.84
2018-04-23T07:28:06.440Z,56.94
2018-04-23T07:29:06.455Z,55.49
2018-04-23T07:30:06.454Z,55.90
2018-04-23T07:31:06.463Z,54.90
2018-04-23T07:32:06.465Z,54.87
2018-04-23T07:33:06.531Z,53.49
2018-04-23T07:34:06.520Z,54.14
2018-04-23T07:35:06.531Z,53.33
2018-04-23T07:36:06.521Z,54.35
2018-04-23T07:37:06.538Z,53.25
2018-04-23T07:38:06.535Z,53.28
2018-04-23T07:39:06.541Z,53.43
2018-04-23T07:40:06.547Z,52.03
2018-04-23T07:41:06.559Z,51.45
2018-04-23T07:42:06.586Z,49.12
2018-04-23T07:43:06.576Z,47.98
2018-04-23T07:44:06.582Z,47.50
2018-04-23T07:45:06.633Z,48.37
2018-04-23T07:46:06.636Z,47.19
2018-04-23T07:47:06.650Z,47.62
2018-04-23T07:48:06.660Z,46.38
2018-04-23T07:49:06.656Z,45.55
2018-04-23T07:50:06.625Z,44.60
2018-04-23T07:51:06.636Z,43.46
2018-04-23T07:52:06.645Z,43.65
2018-04-23T07:53:06.662Z,42.85
2018-04-23T07:54:06.677Z,43.54
2018-04-23T07:55:06.684Z,42.39
2018-04-23T07:56:06.683Z,42.68
2018-04-23T07:57:06.713Z,43.02
2018-04-23T07:58:07.041Z,43.44
2018-04-23T07:59:06.746Z,42.58
2018-04-23T08:00:06.746Z,42.60
2018-04-23T08:01:06.767Z,41.65
2018-04-23T08:02:06.779Z,42.50
2018-04-23T08:03:06.779Z,40.37
2018-04-23T08:04:06.797Z,40.68
2018-04-23T08:05:06.836Z,40.88
2018-04-23T08:06:06.829Z,40.19
2018-04-23T08:07:06.838Z,40.01
2018-04-23T08:08:06.853Z,40.13
2018-04-23T08:09:06.881Z,39.53
2018-04-23T08:10:06.887Z,40.11
2018-04-23T08:11:06.901Z,39.75
2018-04-23T08:12:06.916Z,39.55
2018-04-23T08:13:06.928Z,39.86
2018-04-23T08:14:06.945Z,39.29
2018-04-23T08:15:06.972Z,38.02
2018-04-23T08:16:06.993Z,38.40
2018-04-23T08:17:06.999Z,38.71
2018-04-23T08:18:07.016Z,38.02
2018-04-23T08:19:07.023Z,37.31
2018-04-23T08:20:07.039Z,37.97
2018-04-23T08:21:07.051Z,39.62
2018-04-23T08:22:07.068Z,37.43
2018-04-23T08:23:07.085Z,35.78
2018-04-23T08:24:07.108Z,37.12
2018-04-23T08:25:07.113Z,38.28
2018-04-23T08:26:07.127Z,37.79
2018-04-23T08:27:07.142Z,37.19
2018-04-23T08:28:07.170Z,37.45
2018-04-23T08:29:07.172Z,37.54
2018-04-23T08:30:07.190Z,37.93
2018-04-23T08:31:07.209Z,37.04
2018-04-23T08:32:07.229Z,37.85
2018-04-23T08:33:07.239Z,37.75
2018-04-23T08:34:07.256Z,37.89
2018-04-23T08:35:07.274Z,37.08
2018-04-23T08:36:07.288Z,38.83
2018-04-23T08:37:07.304Z,38.65
2018-04-23T08:38:07.343Z,37.70
2018-04-23T08:39:07.334Z,37.60
2018-04-23T08:40:07.345Z,39.67
2018-04-23T08:41:07.371Z,38.20
2018-04-23T08:42:07.401Z,36.96
2018-04-23T08:43:07.405Z,36.47
2018-04-23T08:44:07.427Z,35.41
2018-04-23T08:45:07.434Z,35.53
2018-04-23T08:46:07.462Z,37.41
2018-04-23T08:47:07.486Z,38.49
2018-04-23T08:48:07.494Z,39.37
2018-04-23T08:49:07.502Z,39.67
2018-04-23T08:50:07.515Z,39.37
2018-04-23T08:51:07.532Z,39.04
2018-04-23T08:52:07.545Z,39.67
2018-04-23T08:53:07.561Z,41.42
2018-04-23T08:54:07.579Z,42.02
2018-04-23T08:55:07.588Z,42.11
2018-04-23T08:56:07.609Z,39.61
2018-04-23T08:57:07.622Z,39.31
2018-04-23T08:58:07.627Z,38.91
2018-04-23T08:59:07.643Z,39.00
2018-04-23T09:00:07.671Z,39.90
2018-04-23T09:01:07.674Z,39.18
2018-04-23T09:02:07.695Z,39.47
2018-04-23T09:03:07.694Z,40.15
2018-04-23T09:04:07.713Z,40.42
2018-04-23T09:05:07.732Z,41.30
2018-04-23T09:06:07.731Z,42.54
2018-04-23T09:07:07.743Z,43.02
2018-04-23T09:08:07.751Z,42.64
2018-04-23T09:09:07.782Z,41.77
2018-04-23T09:10:07.790Z,42.25
2018-04-23T09:11:07.789Z,42.71
2018-04-23T09:12:07.808Z,42.71
2018-04-23T09:13:07.812Z,42.15
2018-04-23T09:14:07.824Z,42.85
2018-04-23T09:15:07.839Z,43.24
2018-04-23T09:16:07.862Z,39.69
2018-04-23T09:17:07.865Z,39.53
2018-04-23T09:18:07.881Z,39.96
2018-04-23T09:19:07.882Z,38.34
2018-04-23T09:20:07.894Z,38.06
2018-04-23T09:21:07.907Z,38.61
2018-04-23T09:22:07.929Z,39.59
2018-04-23T09:23:07.937Z,39.88
2018-04-23T09:24:07.945Z,37.77
2018-04-23T09:25:07.962Z,37.77
2018-04-23T09:26:07.988Z,37.79
2018-04-23T09:27:07.997Z,38.35
2018-04-23T09:28:08.006Z,37.57
2018-04-23T09:29:08.024Z,37.62
2018-04-23T09:30:08.037Z,36.36
2018-04-23T09:31:08.048Z,36.44
2018-04-23T09:32:08.062Z,36.44
2018-04-23T09:33:08.087Z,36.33
2018-04-23T09:34:08.106Z,37.57
2018-04-23T09:35:08.114Z,37.19
2018-04-23T09:36:08.132Z,36.60
2018-04-23T09:37:08.146Z,36.52
2018-04-23T09:38:08.160Z,34.77
2018-04-23T09:39:08.230Z,35.17
2018-04-23T09:40:08.193Z,36.73
2018-04-23T09:41:08.212Z,37.22
2018-04-23T09:42:08.227Z,37.65
2018-04-23T09:43:08.243Z,39.57
2018-04-23T09:44:08.258Z,40.31
2018-04-23T09:45:08.286Z,40.70
2018-04-23T09:46:08.284Z,40.78
2018-04-23T09:47:08.319Z,39.62
2018-04-23T09:48:08.317Z,40.33
2018-04-23T09:49:08.377Z,40.52
2018-04-23T09:50:08.385Z,39.67
2018-04-23T09:51:08.382Z,40.13
2018-04-23T09:52:08.379Z,40.66
2018-04-23T09:53:08.390Z,41.44
2018-04-23T09:54:08.403Z,42.10
2018-04-23T09:55:08.419Z,42.49
2018-04-23T09:56:08.437Z,42.78
2018-04-23T09:57:08.448Z,42.68
2018-04-23T09:58:08.511Z,41.22
2018-04-23T09:59:08.472Z,41.51
2018-04-23T10:00:08.493Z,43.07
2018-04-23T10:01:08.503Z,42.58
2018-04-23T10:02:08.513Z,43.15
2018-04-23T10:03:08.529Z,42.61
2018-04-23T10:04:08.530Z,44.75
2018-04-23T10:05:08.550Z,45.04
2018-04-23T10:06:08.610Z,44.24
2018-04-23T10:07:08.580Z,44.42
2018-04-23T10:08:08.598Z,45.51
2018-04-23T10:09:08.590Z,44.34
2018-04-23T10:10:08.609Z,44.64
2018-04-23T10:11:08.618Z,44.54
2018-04-23T10:12:08.649Z,45.70
2018-04-23T10:13:08.642Z,45.21
2018-04-23T10:14:08.661Z,43.16
2018-04-23T10:15:08.661Z,43.37
2018-04-23T10:16:08.681Z,43.82
2018-04-23T10:17:08.684Z,44.26
2018-04-23T10:18:08.705Z,45.90
2018-04-23T10:19:08.710Z,46.97
2018-04-23T10:20:08.718Z,47.47
2018-04-23T10:21:08.722Z,47.40
2018-04-23T10:22:08.735Z,47.33
2018-04-23T10:23:08.772Z,45.87
2018-04-23T10:24:08.758Z,44.64
2018-04-23T10:25:08.770Z,44.73
2018-04-23T10:26:08.795Z,46.38
2018-04-23T10:27:08.808Z,45.51
2018-04-23T10:28:08.796Z,43.47
2018-04-23T10:29:08.826Z,43.76
2018-04-23T10:30:08.816Z,44.10
2018-04-23T10:31:08.825Z,44.84
2018-04-23T10:32:08.838Z,45.51
2018-04-23T10:33:08.851Z,45.88
2018-04-23T10:34:08.857Z,46.58
2018-04-23T10:35:08.858Z,47.26
2018-04-23T10:36:08.870Z,45.81
2018-04-23T10:37:08.905Z,45.81
2018-04-23T10:38:08.909Z,45.73
2018-04-23T10:39:08.903Z,45.37
2018-04-23T10:40:08.914Z,45.56
2018-04-23T10:41:08.919Z,48.37
2018-04-23T10:42:08.936Z,48.30
2018-04-23T10:43:09.006Z,45.87
2018-04-23T10:44:08.952Z,45.75
2018-04-23T10:45:08.956Z,45.95
2018-04-23T10:46:08.971Z,45.27
2018-04-23T10:47:08.976Z,45.48
2018-04-23T10:48:08.983Z,45.99
2018-04-23T10:49:08.995Z,44.75
2018-04-23T10:50:09.014Z,44.00
2018-04-23T10:51:09.090Z,45.07
2018-04-23T10:52:09.083Z,44.79
2018-04-23T10:53:09.029Z,43.50
2018-04-23T10:54:09.037Z,42.57
2018-04-23T10:55:09.047Z,39.70
2018-04-23T10:56:09.053Z,39.57
2018-04-23T10:57:09.071Z,39.47
2018-04-23T10:58:09.081Z,41.10
2018-04-23T10:59:09.095Z,41.01
2018-04-23T11:00:09.106Z,40.50
2018-04-23T11:01:09.114Z,42.54
2018-04-23T11:02:09.127Z,41.03
2018-04-23T11:03:09.143Z,39.98
2018-04-23T11:04:09.151Z,41.75
2018-04-23T11:05:09.158Z,41.32
2018-04-23T11:06:09.172Z,41.17
2018-04-23T11:07:09.187Z,37.55
2018-04-23T11:08:09.229Z,35.86
2018-04-23T11:09:09.223Z,37.70
2018-04-23T11:10:09.230Z,38.61
2018-04-23T11:11:09.247Z,37.17
2018-04-23T11:12:09.264Z,36.10
2018-04-23T11:13:09.319Z,36.82
2018-04-23T11:14:09.318Z,37.43
2018-04-23T11:15:09.330Z,37.52
2018-04-23T11:16:09.346Z,36.57
2018-04-23T11:17:09.361Z,36.22
2018-04-23T11:18:09.363Z,37.66
2018-04-23T11:19:09.445Z,38.05
2018-04-23T11:20:09.453Z,39.31
2018-04-23T11:21:09.483Z,39.53
2018-04-23T11:22:09.479Z,37.70
2018-04-23T11:23:09.470Z,37.89
2018-04-23T11:24:09.487Z,37.91
2018-04-23T11:25:09.479Z,37.23
2018-04-23T11:26:09.514Z,37.95
2018-04-23T11:27:09.522Z,36.72
2018-04-23T11:28:09.559Z,36.65
2018-04-23T11:29:09.547Z,34.09
2018-04-23T11:30:09.621Z,33.82
2018-04-23T11:31:09.627Z,35.85
2018-04-23T11:32:09.635Z,37.17
2018-04-23T11:33:09.634Z,35.72
2018-04-23T11:34:09.649Z,36.72
2018-04-23T11:35:09.647Z,36.04
2018-04-23T11:36:09.654Z,35.35
2018-04-23T11:37:09.682Z,34.14
2018-04-23T11:38:09.691Z,36.11
2018-04-23T11:39:09.732Z,35.36
2018-04-23T11:40:09.801Z,35.69
2018-04-23T11:41:09.804Z,34.74
2018-04-23T11:42:09.765Z,33.98
2018-04-23T11:43:09.834Z,33.39
2018-04-23T11:44:09.827Z,32.04
2018-04-23T11:45:09.887Z,31.47
2018-04-23T11:46:09.859Z,31.48
2018-04-23T11:47:09.890Z,31.09
2018-04-23T11:48:09.897Z,29.85
2018-04-23T11:49:09.899Z,30.39
2018-04-23T11:50:09.968Z,31.57
2018-04-23T11:51:09.966Z,33.22
2018-04-23T11:52:09.994Z,32.71
2018-04-23T11:53:10.056Z,32.81
2018-04-23T11:54:09.985Z,32.01
2018-04-23T11:55:10.025Z,32.78
2018-04-23T11:56:10.028Z,33.39
2018-04-23T11:57:10.070Z,32.84
2018-04-23T11:58:10.081Z,30.80
2018-04-23T11:59:10.118Z,30.45
2018-04-23T12:00:10.119Z,30.07
2018-04-23T12:01:10.180Z,30.71
2018-04-23T12:02:10.146Z,30.81
2018-04-23T12:03:10.151Z,30.99
2018-04-23T12:04:10.154Z,32.10
2018-04-23T12:05:10.172Z,32.95
2018-04-23T12:06:10.191Z,32.94
2018-04-23T12:07:10.211Z,32.04
2018-04-23T12:08:10.227Z,32.52
2018-04-23T12:09:10.285Z,32.43
2018-04-23T12:10:10.300Z,32.82
2018-04-23T12:11:10.286Z,33.01
2018-04-23T12:12:10.289Z,33.11
2018-04-23T12:13:10.337Z,34.08
2018-04-23T12:14:10.330Z,34.18
2018-04-23T12:15:10.339Z,33.98
2018-04-23T12:16:10.371Z,35.35
2018-04-23T12:17:10.380Z,34.45
2018-04-23T12:18:10.391Z,35.31
2018-04-23T12:19:10.394Z,36.76
2018-04-23T12:20:10.418Z,37.15
2018-04-23T12:21:10.441Z,37.13
2018-04-23T12:22:10.448Z,36.27
2018-04-23T12:23:10.508Z,36.25
2018-04-23T12:24:10.518Z,38.40
2018-04-23T12:25:10.490Z,38.01
2018-04-23T12:26:10.524Z,38.20
2018-04-23T12:27:10.511Z,37.45
2018-04-23T12:28:10.528Z,38.12
2018-04-23T12:29:11.175Z,39.78
2018-04-23T12:30:10.558Z,39.18
2018-04-23T12:31:10.584Z,38.42
2018-04-23T12:32:10.592Z,38.22
2018-04-23T12:33:10.590Z,38.17
2018-04-23T12:34:10.609Z,42.66
2018-04-23T12:35:10.616Z,45.80
2018-04-23T12:36:10.679Z,48.57
2018-04-23T12:37:10.646Z,50.43
2018-04-23T12:38:10.662Z,53.64
2018-04-23T12:39:10.661Z,55.71
2018-04-23T12:40:10.687Z,58.26
2018-04-23T12:41:10.718Z,60.68
2018-04-23T12:42:10.696Z,60.35
2018-04-23T12:43:10.704Z,62.18
2018-04-23T12:44:10.724Z,62.63
2018-04-23T12:45:10.730Z,64.18
2018-04-23T12:46:10.795Z,64.66
2018-04-23T12:47:10.754Z,65.33
2018-04-23T12:48:10.755Z,64.76
2018-04-23T12:49:10.769Z,65.11
2018-04-23T12:50:10.777Z,64.98
2018-04-23T12:51:10.784Z,66.42
2018-04-23T12:52:10.838Z,65.78
2018-04-23T12:53:10.806Z,66.30
2018-04-23T12:54:10.917Z,66.30
2018-04-23T12:55:10.822Z,65.88
2018-04-23T12:56:10.824Z,66.49
2018-04-23T12:57:10.832Z,66.17
2018-04-23T12:58:10.837Z,66.49
2018-04-23T12:59:10.846Z,64.86
2018-04-23T13:00:10.865Z,64.95
2018-04-23T13:01:10.883Z,64.76
2018-04-23T13:02:10.862Z,64.95
2018-04-23T13:03:10.871Z,65.43
2018-04-23T13:04:10.876Z,66.01
2018-04-23T13:05:10.954Z,66.46
2018-04-23T13:06:10.892Z,66.78
2018-04-23T13:07:10.896Z,66.39
2018-04-23T13:08:10.905Z,67.42
2018-04-23T13:09:10.920Z,67.33
2018-04-23T13:10:10.922Z,68.52
2018-04-23T13:11:10.925Z,68.04
2018-04-23T13:12:10.926Z,67.26
2018-04-23T13:13:11.035Z,66.97
2018-04-23T13:14:11.028Z,66.49
2018-04-23T13:15:10.946Z,66.78
2018-04-23T13:16:11.026Z,66.49
2018-04-23T13:17:11.123Z,66.97
2018-04-23T13:18:10.970Z,68.42
2018-04-23T13:19:10.963Z,67.20
2018-04-23T13:20:10.974Z,66.69
2018-04-23T13:21:10.981Z,66.88
2018-04-23T13:22:10.991Z,67.78
2018-04-23T13:23:10.997Z,66.78
2018-04-23T13:24:11.006Z,69.19
2018-04-23T13:25:11.043Z,69.09
2018-04-23T13:26:11.012Z,68.39
2018-04-23T13:27:11.020Z,67.33
2018-04-23T13:28:11.027Z,65.95
2018-04-23T13:29:11.025Z,67.30
2018-04-23T13:30:11.058Z,68.71
2018-04-23T13:31:11.065Z,69.38
2018-04-23T13:32:11.056Z,69.19
2018-04-23T13:33:11.069Z,68.52
2018-04-23T13:34:11.091Z,68.48
2018-04-23T13:35:11.077Z,70.89
2018-04-23T13:36:11.119Z,70.21
2018-04-23T13:37:11.115Z,69.06
2018-04-23T13:38:11.090Z,69.51
2018-04-23T13:39:11.105Z,70.66
2018-04-23T13:40:11.118Z,69.31
2018-04-23T13:41:11.116Z,69.85
2018-04-23T13:42:11.113Z,70.92
2018-04-23T13:43:11.124Z,69.28
2018-04-23T13:44:11.139Z,69.28
2018-04-23T13:45:11.152Z,70.24
2018-04-23T13:46:11.145Z,70.18
2018-04-23T13:47:11.151Z,70.28
2018-04-23T13:48:11.158Z,68.32
2018-04-23T13:49:11.145Z,68.99
2018-04-23T13:50:11.196Z,69.09
2018-04-23T13:51:12.083Z,68.90
2018-04-23T13:52:12.083Z,68.13
2018-04-23T13:53:12.079Z,68.60
2018-04-23T13:54:11.169Z,68.32
2018-04-23T13:55:11.203Z,68.90
2018-04-23T13:56:11.272Z,68.80
2018-04-23T13:57:11.210Z,68.99
2018-04-23T13:58:11.222Z,69.28
2018-04-23T13:59:11.266Z,68.99
2018-04-23T14:00:11.237Z,68.90
2018-04-23T14:01:11.253Z,68.51
2018-04-23T14:02:11.244Z,68.64
2018-04-23T14:03:11.149Z,68.54
2018-04-23T14:04:11.158Z,69.28
2018-04-23T14:05:11.155Z,69.47
2018-04-23T14:06:11.162Z,68.90
2018-04-23T14:07:11.174Z,68.51
2018-04-23T14:08:11.159Z,67.93